Current Weather

South Haven Area Rgnl

South Haven, Michigan (KLWA)

Report from: Monday, March 4, 2024 7:55 PM EST
Current time: Monday, March 4, 2024 8:14 PM EST

Nearby weather – Weather history – Daily summaries
Weather forecast

Temperature20.1°C (68.2°F)
Dew point11.9°C (53.4°F)
Winds 8 kts (4.1 m/s, 9.2 mph) South (190°)
Visibility10 mi. (16.1 km)
Clouds Scattered clouds 6,000 ft. (1,829 m)
Ceiling: Broken clouds 8,000 ft. (2,438 m)
Altimeter29.88 in.Hg (1012 mB)
Relative humidity59 %
Density altitude840 ft. (256 m)
Remarks Fully automated report
Automated weather observing station with precipitation discriminator
Flight conditions Visual Meteorological Conditions
Raw dataKLWA 050055Z AUTO 19008KT 10SM SCT060 BKN080 20/12 A2988 RMK AO2 T02010119
An error has occurred. This application may no longer respond until reloaded. Reload 🗙